createdAt,value
2019-04-10T00:01:20.549Z,33.00
2019-04-10T00:03:46.974Z,30.57
2019-04-10T00:06:16.628Z,31.77
2019-04-10T00:08:42.185Z,27.80
2019-04-10T00:11:08.614Z,29.93
2019-04-10T00:13:34.949Z,29.03
2019-04-10T00:16:01.610Z,31.10
2019-04-10T00:18:27.957Z,30.40
2019-04-10T00:20:54.745Z,29.83
2019-04-10T00:23:21.394Z,31.30
2019-04-10T00:25:49.171Z,28.20
2019-04-10T00:28:15.594Z,28.30
2019-04-10T00:30:43.042Z,28.70
2019-04-10T00:33:10.258Z,30.30
2019-04-10T00:35:37.216Z,29.17
2019-04-10T00:38:03.774Z,29.17
2019-04-10T00:40:31.069Z,30.40
2019-04-10T00:42:58.640Z,26.90
2019-04-10T00:45:25.427Z,27.10
2019-04-10T00:47:53.122Z,29.50
2019-04-10T00:50:20.246Z,27.37
2019-04-10T00:52:46.666Z,27.70
2019-04-10T00:55:13.335Z,28.10
2019-04-10T00:57:39.614Z,27.03
2019-04-10T01:00:06.553Z,27.60
2019-04-10T01:02:32.990Z,28.67
2019-04-10T01:05:00.517Z,28.40
2019-04-10T01:07:36.628Z,25.53
2019-04-10T01:09:55.589Z,28.77
2019-04-10T01:12:22.124Z,27.93
2019-04-10T01:14:48.444Z,28.40
2019-04-10T01:17:18.109Z,27.60
2019-04-10T01:19:44.580Z,28.13
2019-04-10T01:22:11.267Z,28.37
2019-04-10T01:24:37.895Z,28.43
2019-04-10T01:27:04.545Z,29.57
2019-04-10T01:29:30.868Z,27.33
2019-04-10T01:31:57.363Z,28.03
2019-04-10T01:34:23.630Z,29.47
2019-04-10T01:36:49.944Z,27.23
2019-04-10T01:39:18.162Z,29.10
2019-04-10T01:41:44.498Z,29.03
2019-04-10T01:44:11.134Z,25.80
2019-04-10T01:46:38.138Z,29.67
2019-04-10T01:49:05.203Z,30.70
2019-04-10T01:51:33.007Z,27.97
2019-04-10T01:54:00.522Z,29.63
2019-04-10T01:56:31.480Z,27.70
2019-04-10T01:58:55.202Z,33.43
2019-04-10T02:01:24.150Z,29.50
2019-04-10T02:03:50.662Z,29.17
2019-04-10T02:06:16.961Z,29.00
2019-04-10T02:08:43.627Z,30.30
2019-04-10T02:11:10.264Z,28.63
2019-04-10T02:13:36.918Z,30.00
2019-04-10T02:16:04.313Z,28.40
2019-04-10T02:18:30.668Z,27.50
2019-04-10T02:20:57.026Z,30.83
2019-04-10T02:23:23.660Z,33.13
2019-04-10T02:25:50.318Z,27.47
2019-04-10T02:28:18.592Z,30.27
2019-04-10T02:30:45.995Z,28.47
2019-04-10T02:33:13.949Z,28.37
2019-04-10T02:35:40.506Z,24.73
2019-04-10T02:38:26.152Z,29.07
2019-04-10T02:40:35.092Z,29.90
2019-04-10T02:43:03.289Z,26.90
2019-04-10T02:45:30.211Z,31.17
2019-04-10T02:47:56.702Z,27.93
2019-04-10T02:50:25.314Z,29.00
2019-04-10T02:52:51.970Z,29.10
2019-04-10T02:55:18.769Z,29.43
2019-04-10T02:57:46.859Z,30.23
2019-04-10T03:00:14.212Z,30.73
2019-04-10T03:02:41.617Z,27.60
2019-04-10T03:05:09.854Z,39.77
2019-04-10T03:07:36.419Z,40.47
2019-04-10T03:10:17.585Z,31.30
2019-04-10T03:12:36.194Z,27.57
2019-04-10T03:15:05.886Z,29.97
2019-04-10T03:17:33.275Z,35.80
2019-04-10T03:20:00.315Z,30.37
2019-04-10T03:22:27.588Z,27.83
2019-04-10T03:24:54.750Z,28.83
2019-04-10T03:27:22.624Z,27.27
2019-04-10T03:29:49.422Z,29.17
2019-04-10T03:32:36.588Z,28.10
2019-04-10T03:35:24.857Z,28.17
2019-04-10T03:37:51.557Z,27.63
2019-04-10T03:40:18.195Z,27.87
2019-04-10T03:42:45.416Z,28.97
2019-04-10T03:45:11.995Z,27.93
2019-04-10T03:47:39.656Z,28.93
2019-04-10T03:50:06.809Z,27.97
2019-04-10T03:52:33.580Z,28.77
2019-04-10T03:55:00.698Z,26.87
2019-04-10T03:57:27.180Z,27.60
2019-04-10T03:59:53.842Z,28.20
2019-04-10T04:02:40.203Z,28.30
2019-04-10T04:05:06.657Z,29.23
2019-04-10T04:07:33.304Z,27.60
2019-04-10T04:10:00.200Z,28.77
2019-04-10T04:12:26.785Z,30.10
2019-04-10T04:14:53.427Z,28.00
2019-04-10T04:17:20.065Z,30.60
2019-04-10T04:19:46.484Z,30.80
2019-04-10T04:22:12.816Z,30.80
2019-04-10T04:24:40.003Z,29.63
2019-04-10T04:27:06.918Z,29.87
2019-04-10T04:29:34.421Z,30.30
2019-04-10T04:32:01.195Z,31.80
2019-04-10T04:34:29.174Z,30.63
2019-04-10T04:36:55.953Z,30.60
2019-04-10T04:39:26.782Z,27.93
2019-04-10T04:41:50.563Z,28.47
2019-04-10T04:44:18.005Z,28.37
2019-04-10T04:46:44.991Z,27.20
2019-04-10T04:49:11.770Z,27.03
2019-04-10T04:51:38.435Z,26.50
2019-04-10T04:54:04.766Z,25.67
2019-04-10T04:56:31.777Z,25.87
2019-04-10T04:58:59.448Z,27.10
2019-04-10T05:01:25.918Z,27.00
2019-04-10T05:03:52.633Z,25.43
2019-04-10T05:06:22.290Z,26.03
2019-04-10T05:08:48.688Z,23.80
2019-04-10T05:11:16.172Z,24.67
2019-04-10T05:13:42.533Z,22.90
2019-04-10T05:16:08.856Z,22.37
2019-04-10T05:18:35.308Z,25.53
2019-04-10T05:21:01.670Z,22.47
2019-04-10T05:23:28.828Z,23.57
2019-04-10T05:25:56.115Z,21.93
2019-04-10T05:28:24.207Z,22.63
2019-04-10T05:30:51.008Z,20.40
2019-04-10T05:33:17.550Z,21.23
2019-04-10T05:35:43.960Z,20.43
2019-04-10T05:38:10.346Z,20.33
2019-04-10T05:40:36.754Z,20.43
2019-04-10T05:43:03.712Z,18.97
2019-04-10T05:45:30.530Z,19.93
2019-04-10T05:47:57.010Z,19.77
2019-04-10T05:50:23.755Z,20.30
2019-04-10T05:52:50.439Z,19.37
2019-04-10T05:55:16.781Z,19.00
2019-04-10T05:57:43.100Z,19.03
2019-04-10T06:00:10.492Z,20.30
2019-04-10T06:02:36.858Z,18.87
2019-04-10T06:05:05.651Z,19.53
2019-04-10T06:07:32.879Z,18.33
2019-04-10T06:10:04.538Z,18.20
2019-04-10T06:12:28.567Z,19.63
2019-04-10T06:14:56.669Z,19.97
2019-04-10T06:17:23.238Z,17.87
2019-04-10T06:19:50.972Z,19.00
2019-04-10T06:22:18.619Z,17.67
2019-04-10T06:24:45.078Z,15.80
2019-04-10T06:27:12.274Z,15.83
2019-04-10T06:29:39.308Z,17.77
2019-04-10T06:32:05.742Z,18.90
2019-04-10T06:34:32.314Z,18.67
2019-04-10T06:36:59.822Z,17.47
2019-04-10T06:39:26.918Z,17.37
2019-04-10T06:41:53.472Z,16.93
2019-04-10T06:44:19.816Z,17.47
2019-04-10T06:46:46.529Z,17.83
2019-04-10T06:49:14.481Z,17.17
2019-04-10T06:51:41.340Z,18.60
2019-04-10T06:54:11.219Z,15.37
2019-04-10T06:56:37.437Z,17.60
2019-04-10T06:59:04.564Z,15.70
2019-04-10T07:01:40.506Z,14.70
2019-04-10T07:04:04.103Z,16.37
2019-04-10T07:06:50.258Z,16.10
2019-04-10T07:09:09.551Z,14.50
2019-04-10T07:11:38.648Z,14.57
2019-04-10T07:14:05.021Z,11.57
2019-04-10T07:16:34.075Z,11.87
2019-04-10T07:19:04.331Z,11.53
2019-04-10T07:21:30.734Z,12.20
2019-04-10T07:24:03.385Z,11.27
2019-04-10T07:26:35.452Z,10.30
2019-04-10T07:28:57.626Z,11.03
2019-04-10T07:31:23.490Z,11.27
2019-04-10T07:33:51.719Z,10.20
2019-04-10T07:36:19.038Z,10.83
2019-04-10T07:38:45.368Z,11.33
2019-04-10T07:41:19.402Z,10.87
2019-04-10T07:43:40.611Z,10.97
2019-04-10T07:46:07.035Z,10.30
2019-04-10T07:48:33.540Z,10.50
2019-04-10T07:51:00.609Z,11.33
2019-04-10T07:53:27.000Z,10.33
2019-04-10T07:56:01.237Z,10.90
2019-04-10T07:58:21.948Z,9.80
2019-04-10T08:00:49.771Z,8.97
2019-04-10T08:03:16.740Z,8.50
2019-04-10T08:05:44.019Z,8.13
2019-04-10T08:08:10.661Z,7.73
2019-04-10T08:10:37.020Z,8.27
2019-04-10T08:13:04.561Z,9.00
2019-04-10T08:15:31.588Z,8.50
2019-04-10T08:17:58.328Z,8.60
2019-04-10T08:20:24.803Z,10.30
2019-04-10T08:22:51.256Z,9.40
2019-04-10T08:25:18.433Z,8.87
2019-04-10T08:27:46.001Z,10.97
2019-04-10T08:30:12.962Z,9.43
2019-04-10T08:32:51.434Z,9.07
2019-04-10T08:35:09.074Z,9.53
2019-04-10T08:37:36.918Z,8.80
2019-04-10T08:40:07.458Z,9.27
2019-04-10T08:42:34.884Z,9.27
2019-04-10T08:45:04.988Z,9.37
2019-04-10T08:47:32.026Z,8.50
2019-04-10T08:49:59.359Z,8.60
2019-04-10T08:52:25.701Z,9.40
2019-04-10T08:54:53.218Z,10.73
2019-04-10T08:57:19.707Z,9.57
2019-04-10T08:59:47.205Z,9.17
2019-04-10T09:02:14.422Z,9.30
2019-04-10T09:04:41.320Z,9.30
2019-04-10T09:07:08.309Z,9.50
2019-04-10T09:09:35.152Z,8.23
2019-04-10T09:12:01.836Z,9.60
2019-04-10T09:14:29.299Z,8.80
2019-04-10T09:16:56.050Z,9.83
2019-04-10T09:19:22.353Z,9.00
2019-04-10T09:21:49.892Z,9.07
2019-04-10T09:24:17.401Z,9.90
2019-04-10T09:26:44.527Z,9.90
2019-04-10T09:29:11.902Z,9.10
2019-04-10T09:31:38.581Z,8.70
2019-04-10T09:34:06.252Z,8.50
2019-04-10T09:36:33.313Z,8.83
2019-04-10T09:38:59.767Z,9.10
2019-04-10T09:41:28.029Z,9.60
2019-04-10T09:43:54.712Z,8.50
2019-04-10T09:46:21.048Z,8.70
2019-04-10T09:48:47.670Z,7.90
2019-04-10T09:51:16.832Z,8.57
2019-04-10T09:53:43.355Z,8.53
2019-04-10T09:56:09.966Z,7.40
2019-04-10T09:58:36.832Z,9.10
2019-04-10T10:01:08.235Z,7.83
2019-04-10T10:03:35.134Z,8.10
2019-04-10T10:06:01.814Z,8.50
2019-04-10T10:08:28.889Z,7.90
2019-04-10T10:10:55.633Z,8.13
2019-04-10T10:13:22.056Z,8.10
2019-04-10T10:15:49.418Z,8.70
2019-04-10T10:18:17.120Z,8.77
2019-04-10T10:20:43.952Z,8.27
2019-04-10T10:23:11.708Z,8.43
2019-04-10T10:25:39.364Z,8.57
2019-04-10T10:28:06.905Z,7.80
2019-04-10T10:30:33.697Z,7.23
2019-04-10T10:33:01.483Z,7.47
2019-04-10T10:35:29.292Z,8.83
2019-04-10T10:37:56.856Z,9.27
2019-04-10T10:40:23.505Z,8.73
2019-04-10T10:42:50.448Z,8.63
2019-04-10T10:45:18.752Z,8.60
2019-04-10T10:47:46.414Z,8.67
2019-04-10T10:50:13.502Z,8.33
2019-04-10T10:52:39.934Z,8.07
2019-04-10T10:55:07.616Z,8.10
2019-04-10T10:57:35.347Z,7.90
2019-04-10T11:00:08.763Z,9.00
2019-04-10T11:02:37.862Z,8.47
2019-04-10T11:05:06.903Z,8.30
2019-04-10T11:07:33.095Z,7.90
2019-04-10T11:09:59.443Z,8.63
2019-04-10T11:12:26.349Z,8.63
2019-04-10T11:14:53.733Z,9.30
2019-04-10T11:17:22.149Z,8.27
2019-04-10T11:19:48.873Z,9.70
2019-04-10T11:22:21.821Z,9.00
2019-04-10T11:24:44.523Z,9.97
2019-04-10T11:27:11.862Z,9.50
2019-04-10T11:29:39.004Z,10.33
2019-04-10T11:32:06.795Z,9.10
2019-04-10T11:34:34.094Z,10.70
2019-04-10T11:37:19.211Z,10.00
2019-04-10T11:39:33.032Z,9.63
2019-04-10T11:41:58.854Z,9.90
2019-04-10T11:44:27.445Z,9.20
2019-04-10T11:46:56.758Z,9.77
2019-04-10T11:49:23.836Z,10.40
2019-04-10T11:51:52.710Z,10.97
2019-04-10T11:54:23.537Z,10.10
2019-04-10T11:56:49.131Z,8.17
2019-04-10T11:59:17.680Z,8.77
2019-04-10T12:01:46.228Z,9.37
2019-04-10T12:04:14.117Z,9.77
2019-04-10T12:06:43.245Z,9.33
2019-04-10T12:11:42.763Z,10.87
2019-04-10T12:14:09.189Z,10.43
2019-04-10T12:16:35.592Z,10.13
2019-04-10T12:19:02.741Z,11.23
2019-04-10T12:21:29.770Z,9.80
2019-04-10T12:23:56.942Z,10.60
2019-04-10T12:26:23.521Z,10.47
2019-04-10T12:28:50.273Z,10.10
2019-04-10T12:31:17.689Z,9.90
2019-04-10T12:33:44.405Z,11.23
2019-04-10T12:36:12.046Z,11.57
2019-04-10T12:38:39.520Z,11.00
2019-04-10T12:41:06.882Z,10.40
2019-04-10T12:43:34.705Z,11.37
2019-04-10T12:46:02.461Z,11.07
2019-04-10T12:48:28.796Z,11.00
2019-04-10T12:50:55.191Z,11.63
2019-04-10T12:53:21.596Z,11.07
2019-04-10T12:55:49.426Z,12.77
2019-04-10T12:58:17.728Z,12.67
2019-04-10T13:00:44.571Z,11.50
2019-04-10T13:03:11.313Z,10.80
2019-04-10T13:05:41.029Z,9.87
2019-04-10T13:08:19.055Z,11.27
2019-04-10T13:10:36.335Z,9.83
2019-04-10T13:13:03.990Z,11.70
2019-04-10T13:15:31.884Z,10.53
2019-04-10T13:17:58.510Z,8.93
2019-04-10T13:20:25.958Z,9.80
2019-04-10T13:22:52.634Z,11.73
2019-04-10T13:25:19.059Z,10.33
2019-04-10T13:27:45.886Z,10.60
2019-04-10T13:30:14.673Z,9.90
2019-04-10T13:32:42.316Z,9.40
2019-04-10T13:35:10.328Z,9.30
2019-04-10T13:37:37.828Z,10.50
2019-04-10T13:40:05.952Z,8.53
2019-04-10T13:42:33.463Z,9.07
2019-04-10T13:44:59.952Z,8.53
2019-04-10T13:47:26.319Z,8.67
2019-04-10T13:49:52.638Z,8.23
2019-04-10T13:52:27.907Z,9.80
2019-04-10T13:54:54.753Z,8.83
2019-04-10T13:57:22.248Z,8.50
2019-04-10T13:59:49.091Z,9.23
2019-04-10T14:02:23.638Z,8.87
2019-04-10T14:04:50.073Z,8.60
2019-04-10T14:07:17.928Z,7.70
2019-04-10T14:09:48.909Z,8.63
2019-04-10T14:12:13.000Z,8.00
2019-04-10T14:14:40.459Z,8.30
2019-04-10T14:17:07.046Z,8.40
2019-04-10T14:19:34.003Z,8.20
2019-04-10T14:22:01.697Z,7.37
2019-04-10T14:24:39.255Z,7.33
2019-04-10T14:27:01.743Z,8.97
2019-04-10T14:29:28.405Z,7.17
2019-04-10T14:31:56.706Z,8.33
2019-04-10T14:34:23.053Z,7.80
2019-04-10T14:36:49.748Z,8.80
2019-04-10T14:39:19.626Z,8.97
2019-04-10T14:41:44.690Z,8.00
2019-04-10T14:44:12.435Z,7.23
2019-04-10T14:46:40.046Z,8.80
2019-04-10T14:49:07.047Z,6.40
2019-04-10T14:51:34.612Z,7.77
2019-04-10T14:54:01.721Z,8.13
2019-04-10T14:56:28.378Z,8.70
2019-04-10T14:58:54.983Z,7.73
2019-04-10T15:01:21.960Z,8.43
2019-04-10T15:03:48.744Z,8.40
2019-04-10T15:06:15.500Z,6.90
2019-04-10T15:08:41.975Z,7.83
2019-04-10T15:11:08.691Z,6.90
2019-04-10T15:13:36.121Z,8.43
2019-04-10T15:16:03.142Z,7.87
2019-04-10T15:18:30.847Z,8.20
2019-04-10T15:21:00.625Z,8.33
2019-04-10T15:23:27.549Z,9.60
2019-04-10T15:25:55.410Z,8.73
2019-04-10T15:28:21.875Z,7.50
2019-04-10T15:30:53.005Z,7.90
2019-04-10T15:33:20.540Z,7.97
2019-04-10T15:35:47.183Z,7.63
2019-04-10T15:38:13.802Z,9.00
2019-04-10T15:40:40.350Z,9.20
2019-04-10T15:43:06.922Z,8.73
2019-04-10T15:45:40.143Z,7.20
2019-04-10T15:48:06.478Z,7.90
2019-04-10T15:50:32.976Z,9.50
2019-04-10T15:53:09.644Z,8.57
2019-04-10T15:55:38.142Z,8.20
2019-04-10T15:58:06.721Z,7.90
2019-04-10T16:00:34.978Z,7.80
2019-04-10T16:03:02.971Z,7.57
2019-04-10T16:05:31.992Z,8.10
2019-04-10T16:07:58.718Z,8.70
2019-04-10T16:10:25.286Z,8.13
2019-04-10T16:12:57.585Z,9.07
2019-04-10T16:15:25.062Z,7.27
2019-04-10T16:18:11.391Z,8.20
2019-04-10T16:20:38.936Z,8.57
2019-04-10T16:23:10.071Z,8.60
2019-04-10T16:25:38.127Z,8.30
2019-04-10T16:28:06.296Z,8.20
2019-04-10T16:30:33.123Z,8.07
2019-04-10T16:33:00.817Z,9.27
2019-04-10T16:35:27.762Z,9.83
2019-04-10T16:37:54.100Z,9.03
2019-04-10T16:40:20.850Z,9.30
2019-04-10T16:42:47.380Z,10.00
2019-04-10T16:45:14.203Z,7.57
2019-04-10T16:47:41.957Z,8.10
2019-04-10T16:50:09.150Z,8.43
2019-04-10T16:52:36.786Z,7.03
2019-04-10T16:55:06.260Z,7.03
2019-04-10T16:57:34.583Z,7.27
2019-04-10T17:00:01.160Z,6.93
2019-04-10T17:02:28.404Z,7.57
2019-04-10T17:04:54.930Z,8.17
2019-04-10T17:07:23.070Z,8.40
2019-04-10T17:09:51.442Z,9.00
2019-04-10T17:12:17.906Z,8.57
2019-04-10T17:14:45.690Z,8.77
2019-04-10T17:17:12.515Z,8.23
2019-04-10T17:19:48.783Z,9.50
2019-04-10T17:22:08.856Z,8.23
2019-04-10T17:24:37.589Z,8.37
2019-04-10T17:27:05.051Z,7.50
2019-04-10T17:29:33.406Z,9.17
2019-04-10T17:32:06.865Z,9.43
2019-04-10T17:34:34.738Z,8.77
2019-04-10T17:37:01.290Z,7.40
2019-04-10T17:39:28.323Z,7.50
2019-04-10T17:41:59.914Z,8.50
2019-04-10T17:44:23.611Z,9.40
2019-04-10T17:46:51.291Z,8.53
2019-04-10T17:49:19.252Z,8.70
2019-04-10T17:51:52.396Z,8.57
2019-04-10T17:54:20.008Z,9.80
2019-04-10T17:57:00.343Z,8.70
2019-04-10T17:59:32.442Z,8.30
2019-04-10T18:02:09.503Z,8.30
2019-04-10T18:04:46.270Z,7.77
2019-04-10T18:07:16.430Z,8.80
2019-04-10T18:09:43.710Z,9.10
2019-04-10T18:12:12.319Z,8.23
2019-04-10T18:14:40.688Z,8.90
2019-04-10T18:17:07.917Z,8.13
2019-04-10T18:19:38.603Z,9.10
2019-04-10T18:22:05.367Z,8.57
2019-04-10T18:24:32.458Z,8.83
2019-04-10T18:27:01.272Z,7.83
2019-04-10T18:29:27.462Z,8.77
2019-04-10T18:31:57.377Z,7.70
2019-04-10T18:34:24.876Z,8.77
2019-04-10T18:36:52.448Z,7.97
2019-04-10T18:39:19.491Z,8.20
2019-04-10T18:41:46.659Z,8.20
2019-04-10T18:44:13.529Z,8.13
2019-04-10T18:46:40.165Z,8.53
2019-04-10T18:49:07.380Z,8.47
2019-04-10T18:51:34.131Z,8.30
2019-04-10T18:54:01.741Z,7.93
2019-04-10T18:56:29.221Z,8.63
2019-04-10T18:59:07.953Z,9.13
2019-04-10T19:01:34.840Z,8.40
2019-04-10T19:04:04.172Z,8.47
2019-04-10T19:06:32.694Z,9.53
2019-04-10T19:09:07.697Z,8.50
2019-04-10T19:11:32.447Z,9.60
2019-04-10T19:13:57.571Z,8.83
2019-04-10T19:16:25.488Z,9.90
2019-04-10T19:18:53.769Z,8.70
2019-04-10T19:21:21.754Z,8.63
2019-04-10T19:23:48.272Z,9.37
2019-04-10T19:26:16.674Z,9.67
2019-04-10T19:28:45.094Z,12.27
2019-04-10T19:31:18.922Z,9.40
2019-04-10T19:33:41.617Z,10.03
2019-04-10T19:36:17.196Z,9.27
2019-04-10T19:38:45.940Z,9.60
2019-04-10T19:41:23.214Z,8.30
2019-04-10T19:43:42.717Z,9.17
2019-04-10T19:46:10.541Z,10.10
2019-04-10T19:48:36.993Z,9.33
2019-04-10T19:51:04.478Z,10.57
2019-04-10T19:53:31.158Z,8.53
2019-04-10T19:56:00.224Z,8.67
2019-04-10T19:58:26.229Z,10.80
2019-04-10T20:00:52.749Z,12.10
2019-04-10T20:03:19.576Z,11.17
2019-04-10T20:05:46.229Z,11.60
2019-04-10T20:08:13.273Z,14.33
2019-04-10T20:10:39.927Z,8.90
2019-04-10T20:13:06.953Z,10.13
2019-04-10T20:15:34.202Z,10.33
2019-04-10T20:18:02.027Z,11.07
2019-04-10T20:20:35.255Z,11.97
2019-04-10T20:23:02.626Z,11.40
2019-04-10T20:25:31.125Z,9.13
2019-04-10T20:27:58.515Z,9.77
2019-04-10T20:30:27.970Z,7.73
2019-04-10T20:32:54.493Z,7.60
2019-04-10T20:35:22.375Z,7.80
2019-04-10T20:37:49.151Z,7.70
2019-04-10T20:40:15.943Z,7.10
2019-04-10T20:42:44.518Z,8.00
2019-04-10T20:45:11.395Z,7.23
2019-04-10T20:47:39.315Z,7.60
2019-04-10T20:50:06.239Z,8.63
2019-04-10T20:52:32.811Z,7.63
2019-04-10T20:54:59.713Z,8.53
2019-04-10T20:57:26.366Z,8.43
2019-04-10T20:59:53.244Z,8.27
2019-04-10T21:02:20.343Z,7.33
2019-04-10T21:04:55.558Z,7.73
2019-04-10T21:07:15.006Z,7.60
2019-04-10T21:09:41.736Z,10.10
2019-04-10T21:12:13.028Z,9.20
2019-04-10T21:14:37.998Z,9.10
2019-04-10T21:17:04.730Z,9.00
2019-04-10T21:19:31.335Z,8.90
2019-04-10T21:21:57.691Z,9.03
2019-04-10T21:24:25.298Z,9.80
2019-04-10T21:26:52.749Z,9.10
2019-04-10T21:29:38.382Z,8.27
2019-04-10T21:32:07.308Z,8.50
2019-04-10T21:34:36.932Z,8.97
2019-04-10T21:37:03.818Z,9.20
2019-04-10T21:39:30.223Z,8.60
2019-04-10T21:42:08.439Z,9.00
2019-04-10T21:44:25.341Z,9.53
2019-04-10T21:46:52.925Z,10.50
2019-04-10T21:49:19.913Z,8.67
2019-04-10T21:51:46.277Z,8.87
2019-04-10T21:54:12.620Z,8.40
2019-04-10T21:56:39.269Z,9.40
2019-04-10T21:59:05.679Z,8.90
2019-04-10T22:01:32.516Z,9.00
2019-04-10T22:04:00.550Z,8.90
2019-04-10T22:06:28.044Z,9.40
2019-04-10T22:09:02.438Z,9.13
2019-04-10T22:11:30.844Z,8.60
2019-04-10T22:13:57.187Z,9.60
2019-04-10T22:16:26.238Z,9.00
2019-04-10T22:18:52.696Z,9.90
2019-04-10T22:21:19.359Z,8.57
2019-04-10T22:23:46.963Z,8.70
2019-04-10T22:26:13.844Z,9.10
2019-04-10T22:28:43.442Z,8.07
2019-04-10T22:31:10.335Z,9.13
2019-04-10T22:33:36.823Z,8.80
2019-04-10T22:36:04.384Z,9.37
2019-04-10T22:38:30.908Z,8.80
2019-04-10T22:40:58.103Z,8.57
2019-04-10T22:43:24.727Z,9.10
2019-04-10T22:45:51.016Z,8.53
2019-04-10T22:48:17.376Z,9.57
2019-04-10T22:50:43.679Z,9.83
2019-04-10T22:53:10.378Z,9.03
2019-04-10T22:55:36.784Z,8.13
2019-04-10T22:58:04.418Z,8.23
2019-04-10T23:00:32.421Z,9.67
2019-04-10T23:02:59.219Z,9.93
2019-04-10T23:05:26.845Z,9.03
2019-04-10T23:07:53.475Z,9.03
2019-04-10T23:10:21.190Z,8.90
2019-04-10T23:12:54.926Z,8.33
2019-04-10T23:15:15.931Z,8.83
2019-04-10T23:17:43.187Z,8.50
2019-04-10T23:20:10.959Z,8.23
2019-04-10T23:22:37.647Z,8.43
2019-04-10T23:25:06.127Z,8.43
2019-04-10T23:27:33.549Z,8.17
2019-04-10T23:30:00.318Z,8.97
2019-04-10T23:32:27.095Z,9.27
2019-04-10T23:34:54.752Z,8.47
2019-04-10T23:37:22.545Z,9.27
2019-04-10T23:39:48.984Z,8.90
2019-04-10T23:42:15.333Z,7.57
2019-04-10T23:44:42.927Z,8.73
2019-04-10T23:47:09.663Z,8.70
2019-04-10T23:49:37.385Z,7.90
2019-04-10T23:52:03.776Z,8.67
2019-04-10T23:54:30.457Z,9.90
2019-04-10T23:56:57.080Z,9.30
2019-04-10T23:59:23.736Z,9.10
